KRNT - Renton, Washington, USA
Distance from station: W 21mi, 33km
Updated: Fri, 14-Jun-2024 4:53pm PDT
Light rain, Overcast
Light rain, Overcast
 Wind from W
Wind: W 3 mph , 6 km/h
Temperature: 63°F , 17°C
Dew Point: 46°F , 8°C
Humidity: 56%
Barometer: 30.11 inHg , 1019.6 hPa
Visibility: 10 miles , 16 km
Cloud details: 7000 ft
2024/06/14 23:53 KRNT 142353Z 26003KT 10SM -RA OVC070 17/08 A3011 RMK AO2 SLP201 P0000 60000 T01670083 10200 20167 58007 $
KBFI - Seattle/Boeing, Washington, USA
Distance from station: W 25mi, 41km
Updated: Fri, 14-Jun-2024 4:53pm PDT

 Wind from WSW
Wind: WSW 8 mph , 13 km/h
Temperature: 61°F , 16°C
Dew Point: 48°F , 9°C
Humidity: 63%
Barometer: 30.12 inHg , 1020 hPa
Visibility: 10 miles , 16 km
Cloud details: 7500 ft
2024/06/14 23:53 KBFI 142353Z 24007KT 10SM OVC075 16/09 A3012 RMK AO2 RAB18E43 SLP198 P0000 60000 T01610094 10189 20156 58007
 
KSEA - Seattle/Metro, Washington, USA
Distance from station: W 25mi, 41km
Updated: Fri, 14-Jun-2024 4:53pm PDT

 Wind from W
Wind: W 10 mph , 17 km/h
Temperature: 61°F , 16°C
Dew Point: 46°F , 8°C
Humidity: 59%
Barometer: 30.12 inHg , 1020 hPa
Visibility: 10 miles , 16 km
Cloud details: 2000 ft
6500 ft
8000 ft
2024/06/14 23:53 KSEA 142353Z 26009KT 10SM FEW020 BKN065 BKN080 16/08 A3012 RMK AO2 SLP206 60000 T01560078 10178 20150 58007
KSMP - Stampede Pass, Washington, USA
Distance from station: SE 26mi, 41km
Updated: Fri, 14-Jun-2024 4:56pm PDT

 
2024/06/14 23:56 KSMP 142356Z AU/03 A3010 RMK AO2 SLP200 T00940028 10106 20061 58010 $
 
KPLU - Puyallup/Thun, Washington, USA
Distance from station: SW 36mi, 59km
Updated: Fri, 14-Jun-2024 4:55pm PDT

 Wind from N
Wind: N 0 mph , 0 km/h, Gust: 12 mph , 19 km/h
Temperature: 63°F , 17°C
Dew Point: 45°F , 7°C
Humidity: 52%
Barometer: 30.11 inHg , 1019.6 hPa
Visibility: 10 miles , 16 km
Cloud details: 6000 ft
2024/06/14 23:55 KPLU 142355Z AUTO 00000G10KT 10SM OVC060 17/07 A3011 RMK AO2
KPAE - Everett, Washington, USA
Distance from station: NW 37mi, 60km
Updated: Fri, 14-Jun-2024 4:53pm PDT

 Wind from S
Wind: S 14 mph , 22 km/h
Temperature: 63°F , 17°C
Dew Point: 45°F , 7°C
Humidity: 52%
Barometer: 30.11 inHg , 1019.6 hPa
Visibility: 10 miles , 16 km
Cloud details: 8000 ft
10000 ft
2024/06/14 23:53 KPAE 142353Z 19012KT 10SM FEW080 OVC100 17/07 A3011 RMK AO2 SLP195 60000 T01670072 10183 20139 56011
 
KTIW - Tacoma, Washington, USA
Distance from station: WSW 41mi, 66km
Updated: Fri, 14-Jun-2024 4:53pm PDT
Light rain, Overcast
Light rain, Overcast
 Wind from W
Wind: W 10 mph , 17 km/h, Gust: 18 mph , 30 km/h
Temperature: 55°F , 13°C
Dew Point: 54°F , 12°C
Humidity: 94%
Barometer: 30.13 inHg , 1020.3 hPa
Visibility: 10 miles , 16 km
Cloud details: 4000 ft
5500 ft
2024/06/14 23:53 KTIW 142353Z 27009G16KT 10SM -RA FEW040 OVC055 13/12 A3013 RMK AO2 RAB42 SLP205 P0000 60003 T01330117 10183 20128 58005
KTCM - Tacoma/Mc Chord, Washington, USA
Distance from station: SW 42mi, 67km
Updated: Fri, 14-Jun-2024 4:55pm PDT

 Wind from W
Wind: W 12 mph , 19 km/h
Temperature: 61°F , 16°C
Dew Point: 50°F , 10°C
Humidity: 68%
Barometer: 30.12 inHg , 1020 hPa
Visibility: 10 miles , 16 km
Cloud details: 1700 ft
4300 ft
6500 ft
2024/06/14 23:55 KTCM 142355Z AUTO 28010KT 10SM SCT017 BKN043 OVC065 16/10 A3012 RMK AO2 SLP204 T01560104 10184 20151 56005 $
 
KPWT - Bremerton Ntnl, Washington, USA
Distance from station: W 45mi, 73km
Updated: Fri, 14-Jun-2024 4:56pm PDT
Light rain, Mostly cloudy
Light rain, Mostly cloudy
 Wind from SSW
Wind: SSW 14 mph , 22 km/h
Barometer: 30.13 inHg , 1020.3 hPa
Visibility: 10 miles , 16 km
Cloud details: 1400 ft
4600 ft
6000 ft
2024/06/14 23:56 KPWT 142356Z AUTO 20012KT 10SM -RA SCT014 BKN046 BKN060 A3013 RMK AO2 RAE2258B43 SLPNO P0000 6//// 58007 FZRANO $
KGRF - Fort Lewis/Gray, Washington, USA
Distance from station: SW 48mi, 77km
Updated: Fri, 14-Jun-2024 5:08pm PDT
Light rain, Overcast
Light rain, Overcast
 Wind from W
Wind: W 14 mph , 22 km/h
Temperature: 57°F , 14°C
Dew Point: 50°F , 10°C
Humidity: 77%
Barometer: 30.10 inHg , 1019.3 hPa
Visibility: 10 miles , 16 km
Cloud details: 1400 ft
4900 ft
2024/06/15 00:08 KGRF 150008Z 26012KT 10SM -RA FEW014 OVC049 14/10 A3010 RMK AO2A RAB08 SLP197 $
 
KAWO - Arlington Muni, Washington, USA
Distance from station: NNW 50mi, 80km
Updated: Fri, 14-Jun-2024 4:56pm PDT

 Wind from SSW
Wind: SSW 9 mph , 15 km/h
Temperature: 63°F , 17°C
Dew Point: 46°F , 8°C
Humidity: 56%
Barometer: 30.10 inHg , 1019.3 hPa
Visibility: 10 miles , 16 km
Cloud details: 4000 ft
8000 ft
9500 ft
2024/06/14 23:56 KAWO 142356Z AUTO 20008KT 10SM FEW040 BKN080 OVC095 17/08 A3010 RMK AO2 SLP197 T01720083 10178 20139 56013